Alys Beach, Florida
Current Conditions -  °F | °C
As of 3:53 AM on Saturday 25 Oct 2014 (Local Time) from KECP Reporting Station
Clear Clear  
Wind Chill: 50°   Ceiling: Unl
Heat Index: 50°   Visibility: 10mi
Dew Point: 45°   Wind: 3mph
Humidity: 83%   Direction: 340°NNW
Pressure: 30.01"   Gusts: NA
Location:  30.2534°N, 85.9486°W
Report Text: KECP 250853Z AUTO 34003KT 10SM CLR 10/07 A3001 RMK AO2 SLP172 T01000072 58004 $
Loading
Personal Weather Stations






























Interactive Weather Map
Tropical Storm Tracking
New forecast layout! Learn more

10-Day Weather Forecast

Advertisements
Track Severe Weather on mobile